createdAt,value
2023-10-10T00:01:06.071Z,12.73
2023-10-10T00:03:36.011Z,13.10
2023-10-10T00:06:07.665Z,12.85
2023-10-10T00:08:44.945Z,14.02
2023-10-10T00:11:15.781Z,15.25
2023-10-10T00:13:46.732Z,14.23
2023-10-10T00:16:21.279Z,16.77
2023-10-10T00:18:50.150Z,15.25
2023-10-10T00:21:24.619Z,11.90
2023-10-10T00:23:52.471Z,13.55
2023-10-10T00:26:22.177Z,13.43
2023-10-10T00:28:58.317Z,13.40
2023-10-10T00:31:27.996Z,16.13
2023-10-10T00:33:56.439Z,15.52
2023-10-10T00:36:28.526Z,13.75
2023-10-10T00:39:07.011Z,12.85
2023-10-10T00:41:45.801Z,14.40
2023-10-10T00:44:14.960Z,14.52
2023-10-10T00:46:41.791Z,13.20
2023-10-10T00:49:15.321Z,15.82
2023-10-10T00:51:42.729Z,16.50
2023-10-10T00:54:24.465Z,13.73
2023-10-10T00:56:56.956Z,15.57
2023-10-10T00:59:30.984Z,14.27
2023-10-10T01:01:57.733Z,17.33
2023-10-10T01:04:36.876Z,16.75
2023-10-10T01:07:10.048Z,15.75
2023-10-10T01:09:52.714Z,16.35
2023-10-10T01:12:19.389Z,16.95
2023-10-10T01:14:45.965Z,15.60
2023-10-10T01:17:15.137Z,17.23
2023-10-10T01:19:45.549Z,17.42
2023-10-10T01:22:23.937Z,18.70
2023-10-10T01:24:55.827Z,16.30
2023-10-10T01:27:22.902Z,18.50
2023-10-10T01:29:51.693Z,19.63
2023-10-10T01:32:19.453Z,22.10
2023-10-10T01:34:46.249Z,18.13
2023-10-10T01:37:16.279Z,18.10
2023-10-10T01:39:52.819Z,17.33
2023-10-10T01:42:25.029Z,17.38
2023-10-10T01:44:53.317Z,17.10
2023-10-10T01:47:26.694Z,15.68
2023-10-10T01:49:59.394Z,15.77
2023-10-10T01:52:26.711Z,16.92
2023-10-10T01:54:55.907Z,20.65
2023-10-10T01:57:23.141Z,18.23
2023-10-10T01:59:50.797Z,20.95
2023-10-10T02:02:20.086Z,18.58
2023-10-10T02:04:47.099Z,21.40
2023-10-10T02:07:32.220Z,21.98
2023-10-10T02:10:14.601Z,21.50
2023-10-10T02:12:45.896Z,18.48
2023-10-10T02:15:14.609Z,20.50
2023-10-10T02:17:52.444Z,22.40
2023-10-10T02:20:34.695Z,20.50
2023-10-10T02:23:19.833Z,23.40
2023-10-10T02:25:47.841Z,20.48
2023-10-10T02:28:17.279Z,20.90
2023-10-10T02:30:47.105Z,23.00
2023-10-10T02:33:20.702Z,23.17
2023-10-10T02:35:57.279Z,21.27
2023-10-10T02:38:41.285Z,22.08
2023-10-10T02:41:21.950Z,22.90
2023-10-10T02:43:57.923Z,20.33
2023-10-10T02:46:40.155Z,24.08
2023-10-10T02:49:15.185Z,22.15
2023-10-10T02:51:44.441Z,23.95
2023-10-10T02:54:24.664Z,21.15
2023-10-10T02:56:52.167Z,22.77
2023-10-10T02:59:23.165Z,27.17
2023-10-10T03:02:10.405Z,25.17
2023-10-10T03:04:55.568Z,25.60
2023-10-10T03:07:31.874Z,24.77
2023-10-10T03:10:27.886Z,24.30
2023-10-10T03:13:05.314Z,29.65
2023-10-10T03:15:34.438Z,28.85
2023-10-10T03:18:09.636Z,27.27
2023-10-10T03:20:51.197Z,27.33
2023-10-10T03:23:17.704Z,30.52
2023-10-10T03:26:05.100Z,34.00
2023-10-10T03:28:35.686Z,36.28
2023-10-10T03:31:10.301Z,36.90
2023-10-10T03:33:43.776Z,36.42
2023-10-10T03:36:19.352Z,36.88
2023-10-10T03:38:51.288Z,39.10
2023-10-10T03:41:25.382Z,34.20
2023-10-10T03:44:12.006Z,51.15
2023-10-10T03:49:35.873Z,56.22
2023-10-10T03:52:21.257Z,50.53
2023-10-10T03:55:06.308Z,55.55
2023-10-10T03:57:51.258Z,53.35
2023-10-10T04:00:36.509Z,47.83
2023-10-10T04:03:21.974Z,51.33
2023-10-10T04:06:07.282Z,43.10
2023-10-10T04:08:52.348Z,43.45
2023-10-10T04:11:37.570Z,44.67
2023-10-10T04:14:22.635Z,52.83
2023-10-10T04:17:07.779Z,48.30
2023-10-10T04:19:53.158Z,46.10
2023-10-10T04:22:37.990Z,44.88
2023-10-10T04:25:23.379Z,58.47
2023-10-10T04:28:08.235Z,50.80
2023-10-10T04:30:54.320Z,46.58
2023-10-10T04:33:39.362Z,51.85
2023-10-10T04:36:27.406Z,48.72
2023-10-10T04:39:14.198Z,45.92
2023-10-10T04:41:58.978Z,55.95
2023-10-10T04:44:43.984Z,51.28
2023-10-10T04:47:29.217Z,46.03
2023-10-10T04:50:14.544Z,51.05
2023-10-10T04:52:59.675Z,55.22
2023-10-10T04:55:44.619Z,47.03
2023-10-10T04:58:30.076Z,48.53
2023-10-10T05:01:19.686Z,52.60
2023-10-10T05:04:04.641Z,48.05
2023-10-10T05:06:49.955Z,56.10
2023-10-10T05:09:34.887Z,43.88
2023-10-10T05:12:19.719Z,42.78
2023-10-10T05:15:04.652Z,48.63
2023-10-10T05:17:50.136Z,45.72
2023-10-10T05:20:35.362Z,48.47
2023-10-10T05:23:20.811Z,43.88
2023-10-10T05:25:52.073Z,45.20
2023-10-10T05:28:23.320Z,48.13
2023-10-10T05:30:50.035Z,44.28
2023-10-10T05:33:20.757Z,45.65
2023-10-10T05:35:50.718Z,66.63
2023-10-10T05:38:18.033Z,50.67
2023-10-10T05:40:45.020Z,47.88
2023-10-10T05:43:16.725Z,50.05
2023-10-10T05:45:45.036Z,54.63
2023-10-10T05:48:12.907Z,50.88
2023-10-10T05:50:42.199Z,51.55
2023-10-10T05:53:09.241Z,52.38
2023-10-10T05:55:39.412Z,58.72
2023-10-10T05:58:06.864Z,53.22
2023-10-10T06:00:37.860Z,55.45
2023-10-10T06:03:08.534Z,62.08
2023-10-10T06:05:35.513Z,55.67
2023-10-10T06:08:03.163Z,58.17
2023-10-10T06:10:32.788Z,57.05
2023-10-10T06:13:05.005Z,59.15
2023-10-10T06:15:34.814Z,57.33
2023-10-10T06:18:15.278Z,59.53
2023-10-10T06:20:58.195Z,57.97
2023-10-10T06:23:33.810Z,59.00
2023-10-10T06:26:00.806Z,57.90
2023-10-10T06:28:27.523Z,56.67
2023-10-10T06:30:54.884Z,59.55
2023-10-10T06:33:28.970Z,59.65
2023-10-10T06:38:29.060Z,58.25
2023-10-10T06:40:56.651Z,58.70
2023-10-10T06:43:24.121Z,63.92
2023-10-10T06:45:56.242Z,56.92
2023-10-10T06:48:23.597Z,57.63
2023-10-10T06:50:51.138Z,62.28
2023-10-10T06:53:36.640Z,61.92
2023-10-10T06:56:17.080Z,54.50
2023-10-10T07:01:12.964Z,58.22
2023-10-10T07:03:48.190Z,58.22
2023-10-10T07:06:14.870Z,59.20
2023-10-10T07:08:42.283Z,58.50
2023-10-10T07:11:11.962Z,56.67
2023-10-10T07:13:45.182Z,58.15
2023-10-10T07:16:12.526Z,64.05
2023-10-10T07:18:43.253Z,58.30
2023-10-10T07:21:31.764Z,57.22
2023-10-10T07:24:06.244Z,56.50
2023-10-10T07:26:42.192Z,57.83
2023-10-10T07:29:42.434Z,57.33
2023-10-10T07:32:17.835Z,57.08
2023-10-10T07:34:50.789Z,55.85
2023-10-10T07:37:18.666Z,56.72
2023-10-10T07:39:57.648Z,54.28
2023-10-10T07:42:31.816Z,54.00
2023-10-10T07:44:59.219Z,60.67
2023-10-10T07:47:30.764Z,59.15
2023-10-10T07:50:00.758Z,59.25
2023-10-10T07:52:27.579Z,57.15
2023-10-10T07:54:54.964Z,60.22
2023-10-10T07:57:27.905Z,53.75
2023-10-10T07:59:58.299Z,55.30
2023-10-10T08:02:26.665Z,56.63
2023-10-10T08:04:58.709Z,54.03
2023-10-10T08:07:25.859Z,54.13
2023-10-10T08:10:13.051Z,50.38
2023-10-10T08:12:40.793Z,52.42
2023-10-10T08:15:26.560Z,52.50
2023-10-10T08:18:00.255Z,52.15
2023-10-10T08:20:52.710Z,50.83
2023-10-10T08:23:25.639Z,51.13
2023-10-10T08:25:53.644Z,48.63
2023-10-10T08:28:23.711Z,51.22
2023-10-10T08:30:51.433Z,49.95
2023-10-10T08:33:18.240Z,48.45
2023-10-10T08:35:44.888Z,47.65
2023-10-10T08:38:14.697Z,48.85
2023-10-10T08:40:44.284Z,45.42
2023-10-10T08:43:10.829Z,45.92
2023-10-10T08:45:41.434Z,46.50
2023-10-10T08:48:13.814Z,46.40
2023-10-10T08:50:42.112Z,48.03
2023-10-10T08:53:14.064Z,43.05
2023-10-10T08:55:41.854Z,43.58
2023-10-10T08:58:09.307Z,43.90
2023-10-10T09:00:36.633Z,42.97
2023-10-10T09:03:03.870Z,42.28
2023-10-10T09:05:30.796Z,43.45
2023-10-10T09:08:07.471Z,45.38
2023-10-10T09:10:43.342Z,45.88
2023-10-10T09:13:11.230Z,42.13
2023-10-10T09:15:40.089Z,40.20
2023-10-10T09:18:23.618Z,41.97
2023-10-10T09:20:51.951Z,40.65
2023-10-10T09:23:33.213Z,38.70
2023-10-10T09:26:13.560Z,38.42
2023-10-10T09:28:56.715Z,36.15
2023-10-10T09:31:33.270Z,40.85
2023-10-10T09:34:04.504Z,38.17
2023-10-10T09:36:39.070Z,37.78
2023-10-10T09:39:37.329Z,36.22
2023-10-10T09:42:28.948Z,40.88
2023-10-10T09:45:03.001Z,34.63
2023-10-10T09:50:24.049Z,35.70
2023-10-10T09:52:55.346Z,36.20
2023-10-10T09:55:24.257Z,36.83
2023-10-10T09:58:02.349Z,34.45
2023-10-10T10:00:48.709Z,33.83
2023-10-10T10:03:32.572Z,34.60
2023-10-10T10:06:03.119Z,33.00
2023-10-10T10:08:48.761Z,31.88
2023-10-10T10:11:27.375Z,31.23
2023-10-10T10:14:22.152Z,34.00
2023-10-10T10:16:55.487Z,30.83
2023-10-10T10:19:29.095Z,36.95
2023-10-10T10:22:14.924Z,30.98
2023-10-10T10:24:47.245Z,29.08
2023-10-10T10:27:26.566Z,30.60
2023-10-10T10:30:30.548Z,29.40
2023-10-10T10:33:00.987Z,28.70
2023-10-10T10:36:06.948Z,28.75
2023-10-10T10:38:35.489Z,28.02
2023-10-10T10:41:08.602Z,26.90
2023-10-10T10:43:43.439Z,29.45
2023-10-10T10:46:17.024Z,28.92
2023-10-10T10:51:48.917Z,25.70
2023-10-10T10:54:39.508Z,24.80
2023-10-10T10:57:07.266Z,23.40
2023-10-10T10:59:46.782Z,27.80
2023-10-10T11:02:17.324Z,24.08
2023-10-10T11:04:51.660Z,23.00
2023-10-10T11:07:29.962Z,28.60
2023-10-10T11:10:08.178Z,25.15
2023-10-10T11:12:38.074Z,21.80
2023-10-10T11:15:08.762Z,22.50
2023-10-10T11:17:41.982Z,26.50
2023-10-10T11:20:27.641Z,25.08
2023-10-10T11:22:56.845Z,25.30
2023-10-10T11:25:42.469Z,23.90
2023-10-10T11:28:23.066Z,22.55
2023-10-10T11:30:51.512Z,22.90
2023-10-10T11:33:32.402Z,21.85
2023-10-10T11:36:30.325Z,23.80
2023-10-10T11:39:15.125Z,23.88
2023-10-10T11:41:41.651Z,20.65
2023-10-10T11:44:08.316Z,24.58
2023-10-10T11:46:35.101Z,20.35
2023-10-10T11:49:01.692Z,23.58
2023-10-10T11:51:35.677Z,22.30
2023-10-10T11:56:32.580Z,22.52
2023-10-10T11:58:59.221Z,22.30
2023-10-10T12:01:44.069Z,24.13
2023-10-10T12:04:22.294Z,23.83
2023-10-10T12:06:48.824Z,24.02
2023-10-10T12:09:20.076Z,22.73
2023-10-10T12:11:46.666Z,24.67
2023-10-10T12:14:14.076Z,21.75
2023-10-10T12:16:40.674Z,24.10
2023-10-10T12:19:07.217Z,23.30
2023-10-10T12:21:33.725Z,24.30
2023-10-10T12:24:02.887Z,25.30
2023-10-10T12:26:31.394Z,23.92
2023-10-10T12:28:58.580Z,24.55
2023-10-10T12:31:25.162Z,25.17
2023-10-10T12:33:54.496Z,23.33
2023-10-10T12:36:30.614Z,23.60
2023-10-10T12:38:59.429Z,25.27
2023-10-10T12:41:29.540Z,24.80
2023-10-10T12:43:56.137Z,21.20
2023-10-10T12:46:22.974Z,22.98
2023-10-10T12:48:52.883Z,22.63
2023-10-10T12:51:23.539Z,23.77
2023-10-10T12:53:50.915Z,22.88
2023-10-10T12:56:22.605Z,21.55
2023-10-10T12:59:05.185Z,19.40
2023-10-10T13:01:36.960Z,24.45
2023-10-10T13:04:09.032Z,21.05
2023-10-10T13:06:37.213Z,20.60
2023-10-10T13:09:06.187Z,21.27
2023-10-10T13:11:45.051Z,18.98
2023-10-10T13:14:16.079Z,18.65
2023-10-10T13:16:45.344Z,19.50
2023-10-10T13:19:13.201Z,20.63
2023-10-10T13:24:15.261Z,22.13
2023-10-10T13:26:43.952Z,22.83
2023-10-10T13:29:10.521Z,18.45
2023-10-10T13:31:42.333Z,19.13
2023-10-10T13:34:08.927Z,17.35
2023-10-10T13:36:35.435Z,16.38
2023-10-10T13:39:06.916Z,19.52
2023-10-10T13:41:37.254Z,20.38
2023-10-10T13:44:05.103Z,18.90
2023-10-10T13:46:36.977Z,18.60
2023-10-10T13:49:10.305Z,19.65
2023-10-10T13:51:43.045Z,19.10
2023-10-10T13:54:09.749Z,18.15
2023-10-10T13:56:36.467Z,19.20
2023-10-10T13:59:03.489Z,16.60
2023-10-10T14:01:30.284Z,16.95
2023-10-10T14:04:05.803Z,17.55
2023-10-10T14:06:46.648Z,16.65
2023-10-10T14:09:26.611Z,16.52
2023-10-10T14:12:08.300Z,19.85
2023-10-10T14:14:35.051Z,17.98
2023-10-10T14:17:01.728Z,18.20
2023-10-10T14:19:28.265Z,19.17
2023-10-10T14:21:54.922Z,18.60
2023-10-10T14:24:22.133Z,18.17
2023-10-10T14:26:50.062Z,19.25
2023-10-10T14:29:17.587Z,17.17
2023-10-10T14:31:46.120Z,21.52
2023-10-10T14:34:21.595Z,19.95
2023-10-10T14:36:52.033Z,20.00
2023-10-10T14:39:45.593Z,20.88
2023-10-10T14:42:15.013Z,22.58
2023-10-10T14:44:42.112Z,19.42
2023-10-10T14:47:11.064Z,18.42
2023-10-10T14:49:39.964Z,16.02
2023-10-10T14:52:07.813Z,17.55
2023-10-10T14:54:39.558Z,15.13
2023-10-10T14:57:07.029Z,15.82
2023-10-10T14:59:34.975Z,19.27
2023-10-10T15:02:02.569Z,13.68
2023-10-10T15:04:33.160Z,14.75
2023-10-10T15:07:00.445Z,12.13
2023-10-10T15:09:27.052Z,17.90
2023-10-10T15:11:58.238Z,14.63
2023-10-10T15:14:25.213Z,12.25
2023-10-10T15:16:52.390Z,12.95
2023-10-10T15:19:19.117Z,12.98
2023-10-10T15:21:51.804Z,12.98
2023-10-10T15:24:19.312Z,13.65
2023-10-10T15:26:52.657Z,12.73
2023-10-10T15:29:22.428Z,11.32
2023-10-10T15:31:51.229Z,12.48
2023-10-10T15:34:18.137Z,13.32
2023-10-10T15:36:47.674Z,13.57
2023-10-10T15:39:15.858Z,13.88
2023-10-10T15:41:44.060Z,12.55
2023-10-10T15:44:13.598Z,12.43
2023-10-10T15:46:43.871Z,13.93
2023-10-10T15:49:29.114Z,11.80
2023-10-10T15:52:04.610Z,12.35
2023-10-10T15:54:35.289Z,15.45
2023-10-10T15:57:09.902Z,12.32
2023-10-10T15:59:42.982Z,12.55
2023-10-10T16:02:11.265Z,13.30
2023-10-10T16:04:43.906Z,13.50
2023-10-10T16:07:12.077Z,13.13
2023-10-10T16:12:13.962Z,12.95
2023-10-10T16:14:41.101Z,12.50
2023-10-10T16:17:07.745Z,13.93
2023-10-10T16:19:37.140Z,11.48
2023-10-10T16:22:06.330Z,12.73
2023-10-10T16:24:33.626Z,9.88
2023-10-10T16:27:00.704Z,10.57
2023-10-10T16:29:34.446Z,12.00
2023-10-10T16:32:08.649Z,14.23
2023-10-10T16:37:14.738Z,9.52
2023-10-10T16:39:45.642Z,11.25
2023-10-10T16:42:13.019Z,11.75
2023-10-10T16:44:39.703Z,11.55
2023-10-10T16:47:06.313Z,15.68
2023-10-10T16:49:33.454Z,12.88
2023-10-10T16:52:00.500Z,13.35
2023-10-10T16:54:31.838Z,16.13
2023-10-10T16:56:58.886Z,13.50
2023-10-10T16:59:25.597Z,12.52
2023-10-10T17:01:52.205Z,17.27
2023-10-10T17:04:20.573Z,14.05
2023-10-10T17:06:49.957Z,16.33
2023-10-10T17:09:16.896Z,16.17
2023-10-10T17:11:43.724Z,16.85
2023-10-10T17:14:13.333Z,17.65
2023-10-10T17:16:40.838Z,17.52
2023-10-10T17:19:17.090Z,15.75
2023-10-10T17:21:48.580Z,17.10
2023-10-10T17:24:16.556Z,17.42
2023-10-10T17:26:45.135Z,18.25
2023-10-10T17:29:16.208Z,17.15
2023-10-10T17:31:43.331Z,18.58
2023-10-10T17:34:10.078Z,15.65
2023-10-10T17:36:38.247Z,15.75
2023-10-10T17:39:05.572Z,16.33
2023-10-10T17:41:36.040Z,14.98
2023-10-10T17:44:10.415Z,16.33
2023-10-10T17:46:37.680Z,16.00
2023-10-10T17:49:06.185Z,16.17
2023-10-10T17:51:36.261Z,13.80
2023-10-10T17:54:03.782Z,14.35
2023-10-10T17:56:30.549Z,14.48
2023-10-10T17:58:57.084Z,14.23
2023-10-10T18:01:23.772Z,16.52
2023-10-10T18:03:55.452Z,14.65
2023-10-10T18:06:24.580Z,13.95
2023-10-10T18:09:02.015Z,14.23
2023-10-10T18:11:33.174Z,14.98
2023-10-10T18:13:59.866Z,12.77
2023-10-10T18:16:26.344Z,14.23
2023-10-10T18:18:53.719Z,12.82
2023-10-10T18:21:21.512Z,14.27
2023-10-10T18:23:48.662Z,13.07
2023-10-10T18:26:23.741Z,13.75
2023-10-10T18:28:53.272Z,12.52
2023-10-10T18:31:30.513Z,15.05
2023-10-10T18:33:57.802Z,12.43
2023-10-10T18:36:24.653Z,15.82
2023-10-10T18:38:55.135Z,11.40
2023-10-10T18:41:24.096Z,10.65
2023-10-10T18:43:52.203Z,14.30
2023-10-10T18:46:18.858Z,16.83
2023-10-10T18:48:46.639Z,13.98
2023-10-10T18:51:15.199Z,14.07
2023-10-10T18:53:46.289Z,14.55
2023-10-10T18:56:13.026Z,12.63
2023-10-10T18:58:40.032Z,13.05
2023-10-10T19:01:08.691Z,14.13
2023-10-10T19:03:35.440Z,12.52
2023-10-10T19:06:02.194Z,12.10
2023-10-10T19:10:55.425Z,11.27
2023-10-10T19:13:22.045Z,12.82
2023-10-10T19:15:48.862Z,13.13
2023-10-10T19:18:17.071Z,12.82
2023-10-10T19:20:44.579Z,11.13
2023-10-10T19:23:11.795Z,16.65
2023-10-10T19:25:48.006Z,13.43
2023-10-10T19:28:18.737Z,12.20
2023-10-10T19:30:46.115Z,11.10
2023-10-10T19:33:15.811Z,10.85
2023-10-10T19:35:46.116Z,13.73
2023-10-10T19:38:13.216Z,11.57
2023-10-10T19:40:44.628Z,11.52
2023-10-10T19:43:12.489Z,12.32
2023-10-10T19:45:40.213Z,10.63
2023-10-10T19:48:07.912Z,12.52
2023-10-10T19:50:39.474Z,10.70
2023-10-10T19:53:07.077Z,10.43
2023-10-10T19:55:35.252Z,10.68
2023-10-10T19:58:02.179Z,12.60
2023-10-10T20:00:28.853Z,11.18
2023-10-10T20:02:58.692Z,11.10
2023-10-10T20:05:25.605Z,9.55
2023-10-10T20:07:54.769Z,13.32
2023-10-10T20:10:23.534Z,14.00
2023-10-10T20:12:55.459Z,11.23
2023-10-10T20:15:25.413Z,10.32
2023-10-10T20:17:52.875Z,12.27
2023-10-10T20:20:27.048Z,14.18
2023-10-10T20:22:57.808Z,11.75
2023-10-10T20:25:25.141Z,11.82
2023-10-10T20:27:51.902Z,11.05
2023-10-10T20:30:20.593Z,11.20
2023-10-10T20:32:48.447Z,10.93
2023-10-10T20:35:25.754Z,13.60
2023-10-10T20:37:57.641Z,11.43
2023-10-10T20:40:30.665Z,9.18
2023-10-10T20:43:01.073Z,14.57
2023-10-10T20:45:30.136Z,12.55
2023-10-10T20:47:57.854Z,11.20
2023-10-10T20:50:29.253Z,10.20
2023-10-10T20:52:58.088Z,10.73
2023-10-10T20:55:28.654Z,12.02
2023-10-10T20:57:58.967Z,9.85
2023-10-10T21:00:30.018Z,10.30
2023-10-10T21:02:58.710Z,11.55
2023-10-10T21:05:25.862Z,9.45
2023-10-10T21:07:53.284Z,10.20
2023-10-10T21:10:20.627Z,9.95
2023-10-10T21:12:48.922Z,10.38
2023-10-10T21:15:17.416Z,8.82
2023-10-10T21:18:00.328Z,11.07
2023-10-10T21:20:29.011Z,12.45
2023-10-10T21:23:00.212Z,11.32
2023-10-10T21:25:27.932Z,9.00
2023-10-10T21:27:58.325Z,10.15
2023-10-10T21:30:30.170Z,11.68
2023-10-10T21:32:58.595Z,9.55
2023-10-10T21:35:31.273Z,9.50
2023-10-10T21:37:59.856Z,8.65
2023-10-10T21:40:28.254Z,9.02
2023-10-10T21:42:56.262Z,9.40
2023-10-10T21:45:24.658Z,8.40
2023-10-10T21:47:55.367Z,10.93
2023-10-10T21:50:22.441Z,9.38
2023-10-10T21:52:48.986Z,8.60
2023-10-10T21:55:20.506Z,10.20
2023-10-10T21:57:51.068Z,10.60
2023-10-10T22:00:25.599Z,11.98
2023-10-10T22:02:53.721Z,11.02
2023-10-10T22:05:20.754Z,9.75
2023-10-10T22:07:48.455Z,10.50
2023-10-10T22:10:21.804Z,9.30
2023-10-10T22:12:51.650Z,10.95
2023-10-10T22:15:18.784Z,10.15
2023-10-10T22:17:45.660Z,11.27
2023-10-10T22:20:13.209Z,14.32
2023-10-10T22:22:43.128Z,9.73
2023-10-10T22:25:20.246Z,10.77
2023-10-10T22:27:47.862Z,11.63
2023-10-10T22:30:18.754Z,11.93
2023-10-10T22:32:48.773Z,12.82
2023-10-10T22:35:20.160Z,10.60
2023-10-10T22:37:47.830Z,12.25
2023-10-10T22:40:35.526Z,10.68
2023-10-10T22:43:03.402Z,10.65
2023-10-10T22:45:34.946Z,10.65
2023-10-10T22:48:02.856Z,10.93
2023-10-10T22:53:00.105Z,10.98
2023-10-10T22:55:29.529Z,12.88
2023-10-10T22:57:58.512Z,12.18
2023-10-10T23:00:27.570Z,13.50
2023-10-10T23:02:59.569Z,14.65
2023-10-10T23:05:28.348Z,14.15
2023-10-10T23:07:58.728Z,14.98
2023-10-10T23:10:25.344Z,12.77
2023-10-10T23:12:53.344Z,14.00
2023-10-10T23:15:27.555Z,13.48
2023-10-10T23:18:03.021Z,12.63
2023-10-10T23:20:34.370Z,13.25
2023-10-10T23:23:05.747Z,13.30
2023-10-10T23:25:32.807Z,13.98
2023-10-10T23:27:59.798Z,13.32
2023-10-10T23:30:30.395Z,13.90
2023-10-10T23:32:58.573Z,15.35
2023-10-10T23:35:28.023Z,12.65
2023-10-10T23:38:02.154Z,14.30
2023-10-10T23:43:09.819Z,12.88
2023-10-10T23:45:43.218Z,14.32
2023-10-10T23:48:16.462Z,12.65
2023-10-10T23:50:44.080Z,13.20
2023-10-10T23:53:10.899Z,17.00
2023-10-10T23:55:40.412Z,17.63
2023-10-10T23:58:12.769Z,16.00
